This is the latest recevied weather packets stored in our database for station/object F1ZFG-13. If no packets are shown the sender has not sent any weather packets the latest 10 day(s).
| Time | Temp. | Humidity | Pressure | Rain* | Wind** | Luminosity | Snow |
|---|---|---|---|---|---|---|---|
| 1777537212 | 15.56° C | 62% | 1018.3 hPa | 0 mm | - | - | - |
| 1777533811 | 13.89° C | 72% | 1018.3 hPa | 0 mm | - | - | - |
| 1777530296 | 11.67° C | 89% | 1017.7 hPa | 0 mm | - | - | - |
| 1777526786 | 10.56° C | 95% | 1017.3 hPa | 0 mm | - | - | - |
| 1777523900 | 10.56° C | 95% | 1016.7 hPa | 0 mm | - | - | - |
| 1777520875 | 11.67° C | 93% | 1016.5 hPa | 0 mm | - | - | - |
| 1777517976 | 12.22° C | 93% | 1016.8 hPa | 0 mm | - | - | - |
| 1777514934 | 12.22° C | 93% | 1016.8 hPa | 0 mm | - | - | - |
| 1777511462 | 12.78° C | 89% | 1016.4 hPa | 0 mm | - | - | - |
| 1777508480 | 13.89° C | 87% | 1015.9 hPa | 0 mm | - | - | - |
| 1777505482 | 14.44° C | 86% | 1016 hPa | 0 mm | - | - | - |
| 1777502049 | 15.56° C | 80% | 1015.6 hPa | 0 mm | - | - | - |
| 1777498886 | 16.67° C | 76% | 1015.5 hPa | 0 mm | - | - | - |
| 1777495496 | 17.22° C | 73% | 1014.9 hPa | 0 mm | - | - | - |
| 1777492575 | 17.78° C | 72% | 1014.1 hPa | 0 mm | - | - | - |
| 1777489182 | 18.89° C | 67% | 1013.8 hPa | 0 mm | - | - | - |
| 1777485721 | 18.89° C | 67% | 1013.8 hPa | 0 mm | - | - | - |
| 1777482587 | 21.11° C | 52% | 1013.4 hPa | 0 mm | - | - | - |
| 1777479711 | 21.67° C | 48% | 1013 hPa | 0 mm | - | - | - |
| 1777476402 | 22.22° C | 46% | 1013.1 hPa | 0 mm | - | - | - |
| 1777473201 | 22.22° C | 46% | 1013.7 hPa | 0 mm | - | - | - |
| 1777470298 | 21.67° C | 48% | 1014.2 hPa | 0 mm | - | - | - |
| 1777466825 | 20.56° C | 54% | 1014.3 hPa | 0 mm | - | - | - |
| 1777463717 | 18.89° C | 61% | 1015 hPa | 0 mm | - | - | - |
| 1777460586 | 18.89° C | 61% | 1015 hPa | 0 mm | - | - | - |
* Rain latest hour (hover to see other rain measurements)
** Current wind speed in m/s (hover to see current wind gust speed)